sensor_id;sensor_type;location;lat;lon;timestamp;P1;durP1;ratioP1;P2;durP2;ratioP2
37019;SDS011;22932;52.442;16.896;2022-10-31T00:00:30;37.90;;;33.80;;
37019;SDS011;22932;52.442;16.896;2022-10-31T00:02:59;39.90;;;35.80;;
37019;SDS011;22932;52.442;16.896;2022-10-31T00:05:28;37.80;;;34.20;;
37019;SDS011;22932;52.442;16.896;2022-10-31T00:07:58;38.60;;;34.50;;
37019;SDS011;22932;52.442;16.896;2022-10-31T00:10:27;36.70;;;33.10;;
37019;SDS011;22932;52.442;16.896;2022-10-31T00:12:56;38.00;;;34.20;;
37019;SDS011;22932;52.442;16.896;2022-10-31T00:15:25;37.30;;;33.40;;
37019;SDS011;22932;52.442;16.896;2022-10-31T00:17:54;37.70;;;33.50;;
37019;SDS011;22932;52.442;16.896;2022-10-31T00:22:53;35.50;;;31.90;;
37019;SDS011;22932;52.442;16.896;2022-10-31T00:25:25;37.80;;;33.90;;
37019;SDS011;22932;52.442;16.896;2022-10-31T00:27:55;38.60;;;34.40;;
37019;SDS011;22932;52.442;16.896;2022-10-31T00:30:24;41.30;;;35.70;;
37019;SDS011;22932;52.442;16.896;2022-10-31T00:32:53;36.50;;;32.70;;
37019;SDS011;22932;52.442;16.896;2022-10-31T00:35:22;40.00;;;34.80;;
37019;SDS011;22932;52.442;16.896;2022-10-31T00:37:52;37.00;;;33.20;;
37019;SDS011;22932;52.442;16.896;2022-10-31T00:40:22;39.00;;;34.70;;
37019;SDS011;22932;52.442;16.896;2022-10-31T00:42:51;36.70;;;31.80;;
37019;SDS011;22932;52.442;16.896;2022-10-31T00:45:20;37.40;;;33.70;;
37019;SDS011;22932;52.442;16.896;2022-10-31T00:47:49;37.40;;;33.20;;
37019;SDS011;22932;52.442;16.896;2022-10-31T00:50:19;34.70;;;31.20;;
37019;SDS011;22932;52.442;16.896;2022-10-31T00:52:48;34.70;;;31.20;;
37019;SDS011;22932;52.442;16.896;2022-10-31T00:55:17;37.80;;;33.70;;
37019;SDS011;22932;52.442;16.896;2022-10-31T00:57:47;38.40;;;34.40;;
37019;SDS011;22932;52.442;16.896;2022-10-31T01:00:16;39.90;;;35.30;;
37019;SDS011;22932;52.442;16.896;2022-10-31T01:02:46;39.70;;;35.30;;
37019;SDS011;22932;52.442;16.896;2022-10-31T01:05:15;39.60;;;35.50;;
37019;SDS011;22932;52.442;16.896;2022-10-31T01:07:44;42.80;;;36.10;;
37019;SDS011;22932;52.442;16.896;2022-10-31T01:10:14;42.90;;;37.90;;
37019;SDS011;22932;52.442;16.896;2022-10-31T08:03:55;21.40;;;19.20;;
37019;SDS011;22932;52.442;16.896;2022-10-31T08:06:24;24.70;;;20.10;;
37019;SDS011;22932;52.442;16.896;2022-10-31T08:08:53;20.70;;;18.60;;
37019;SDS011;22932;52.442;16.896;2022-10-31T08:11:23;27.20;;;19.00;;
37019;SDS011;22932;52.442;16.896;2022-10-31T08:13:52;21.60;;;19.30;;
37019;SDS011;22932;52.442;16.896;2022-10-31T08:16:21;21.50;;;19.30;;
37019;SDS011;22932;52.442;16.896;2022-10-31T08:18:52;41.20;;;20.10;;
37019;SDS011;22932;52.442;16.896;2022-10-31T08:21:22;35.60;;;20.40;;
37019;SDS011;22932;52.442;16.896;2022-10-31T08:23:51;23.80;;;20.40;;
37019;SDS011;22932;52.442;16.896;2022-10-31T08:26:20;24.40;;;22.10;;
37019;SDS011;22932;52.442;16.896;2022-10-31T08:28:49;24.90;;;22.00;;
37019;SDS011;22932;52.442;16.896;2022-10-31T08:31:21;24.40;;;22.00;;
37019;SDS011;22932;52.442;16.896;2022-10-31T08:36:21;25.40;;;22.70;;
37019;SDS011;22932;52.442;16.896;2022-10-31T08:38:50;25.60;;;23.00;;
37019;SDS011;22932;52.442;16.896;2022-10-31T08:41:19;25.40;;;23.00;;
37019;SDS011;22932;52.442;16.896;2022-10-31T08:43:49;25.00;;;22.40;;
37019;SDS011;22932;52.442;16.896;2022-10-31T08:46:20;26.80;;;23.40;;
37019;SDS011;22932;52.442;16.896;2022-10-31T08:48:49;24.50;;;21.90;;
37019;SDS011;22932;52.442;16.896;2022-10-31T08:51:18;25.30;;;22.70;;
37019;SDS011;22932;52.442;16.896;2022-10-31T08:53:48;25.30;;;22.80;;
37019;SDS011;22932;52.442;16.896;2022-10-31T08:56:17;22.60;;;20.60;;
37019;SDS011;22932;52.442;16.896;2022-10-31T08:58:46;24.10;;;21.80;;
37019;SDS011;22932;52.442;16.896;2022-10-31T09:01:15;23.50;;;21.40;;
37019;SDS011;22932;52.442;16.896;2022-10-31T09:03:45;23.00;;;20.90;;
37019;SDS011;22932;52.442;16.896;2022-10-31T09:06:14;23.90;;;21.50;;
37019;SDS011;22932;52.442;16.896;2022-10-31T09:08:43;24.30;;;22.00;;
37019;SDS011;22932;52.442;16.896;2022-10-31T09:11:12;23.10;;;21.00;;
37019;SDS011;22932;52.442;16.896;2022-10-31T09:13:41;24.50;;;22.20;;
37019;SDS011;22932;52.442;16.896;2022-10-31T09:16:11;24.80;;;22.60;;
37019;SDS011;22932;52.442;16.896;2022-10-31T09:18:40;25.50;;;22.90;;
37019;SDS011;22932;52.442;16.896;2022-10-31T09:21:09;24.60;;;22.40;;
37019;SDS011;22932;52.442;16.896;2022-10-31T09:23:38;26.10;;;23.40;;
37019;SDS011;22932;52.442;16.896;2022-10-31T09:26:07;25.80;;;23.40;;
37019;SDS011;22932;52.442;16.896;2022-10-31T09:28:37;28.70;;;25.70;;
37019;SDS011;22932;52.442;16.896;2022-10-31T09:31:06;27.00;;;24.30;;
37019;SDS011;22932;52.442;16.896;2022-10-31T09:33:35;29.70;;;27.00;;
37019;SDS011;22932;52.442;16.896;2022-10-31T09:36:05;28.40;;;25.60;;
37019;SDS011;22932;52.442;16.896;2022-10-31T09:38:34;29.70;;;26.90;;
37019;SDS011;22932;52.442;16.896;2022-10-31T09:41:06;27.00;;;24.40;;
37019;SDS011;22932;52.442;16.896;2022-10-31T09:46:18;28.70;;;26.00;;
37019;SDS011;22932;52.442;16.896;2022-10-31T09:49:01;30.30;;;27.40;;
37019;SDS011;22932;52.442;16.896;2022-10-31T09:51:44;32.10;;;28.90;;
37019;SDS011;22932;52.442;16.896;2022-10-31T09:54:18;30.00;;;27.10;;
37019;SDS011;22932;52.442;16.896;2022-10-31T09:57:04;32.50;;;28.90;;
37019;SDS011;22932;52.442;16.896;2022-10-31T09:59:39;33.70;;;30.40;;
37019;SDS011;22932;52.442;16.896;2022-10-31T10:02:13;35.10;;;31.70;;
37019;SDS011;22932;52.442;16.896;2022-10-31T10:04:53;32.80;;;29.80;;
37019;SDS011;22932;52.442;16.896;2022-10-31T10:07:32;35.20;;;31.70;;
37019;SDS011;22932;52.442;16.896;2022-10-31T10:10:12;34.40;;;30.70;;
37019;SDS011;22932;52.442;16.896;2022-10-31T10:12:50;36.90;;;33.20;;
37019;SDS011;22932;52.442;16.896;2022-10-31T10:15:40;35.40;;;31.80;;
37019;SDS011;22932;52.442;16.896;2022-10-31T10:18:23;33.10;;;29.70;;
37019;SDS011;22932;52.442;16.896;2022-10-31T10:21:06;33.30;;;30.10;;
37019;SDS011;22932;52.442;16.896;2022-10-31T10:23:49;32.40;;;29.00;;
37019;SDS011;22932;52.442;16.896;2022-10-31T10:26:30;31.50;;;28.40;;
37019;SDS011;22932;52.442;16.896;2022-10-31T10:29:06;32.00;;;28.70;;
37019;SDS011;22932;52.442;16.896;2022-10-31T10:31:48;30.70;;;27.10;;
37019;SDS011;22932;52.442;16.896;2022-10-31T10:34:19;29.80;;;26.80;;
37019;SDS011;22932;52.442;16.896;2022-10-31T10:36:55;30.00;;;27.30;;
37019;SDS011;22932;52.442;16.896;2022-10-31T10:39:29;28.50;;;26.00;;
37019;SDS011;22932;52.442;16.896;2022-10-31T10:42:04;31.60;;;28.30;;
37019;SDS011;22932;52.442;16.896;2022-10-31T10:44:56;29.70;;;27.10;;
37019;SDS011;22932;52.442;16.896;2022-10-31T10:47:46;27.50;;;24.70;;
37019;SDS011;22932;52.442;16.896;2022-10-31T10:50:22;28.10;;;25.20;;
37019;SDS011;22932;52.442;16.896;2022-10-31T10:53:01;27.20;;;24.80;;
37019;SDS011;22932;52.442;16.896;2022-10-31T10:55:36;24.20;;;21.90;;
37019;SDS011;22932;52.442;16.896;2022-10-31T10:58:10;24.20;;;22.10;;
37019;SDS011;22932;52.442;16.896;2022-10-31T11:00:48;25.40;;;23.00;;
37019;SDS011;22932;52.442;16.896;2022-10-31T13:52:25;19.30;;;14.60;;
37019;SDS011;22932;52.442;16.896;2022-10-31T13:54:55;18.20;;;15.00;;
37019;SDS011;22932;52.442;16.896;2022-10-31T13:57:29;18.00;;;15.40;;
37019;SDS011;22932;52.442;16.896;2022-10-31T14:00:03;19.70;;;15.30;;
37019;SDS011;22932;52.442;16.896;2022-10-31T14:02:51;18.00;;;15.60;;
37019;SDS011;22932;52.442;16.896;2022-10-31T14:05:24;22.10;;;16.80;;
37019;SDS011;22932;52.442;16.896;2022-10-31T14:07:57;21.90;;;18.20;;
37019;SDS011;22932;52.442;16.896;2022-10-31T14:10:29;19.60;;;17.00;;
37019;SDS011;22932;52.442;16.896;2022-10-31T14:13:06;19.90;;;17.10;;
37019;SDS011;22932;52.442;16.896;2022-10-31T14:15:43;20.20;;;16.80;;
37019;SDS011;22932;52.442;16.896;2022-10-31T14:18:23;17.50;;;15.80;;
37019;SDS011;22932;52.442;16.896;2022-10-31T14:20:57;22.10;;;17.40;;
37019;SDS011;22932;52.442;16.896;2022-10-31T14:23:33;18.80;;;16.90;;
37019;SDS011;22932;52.442;16.896;2022-10-31T14:26:20;22.20;;;16.90;;
37019;SDS011;22932;52.442;16.896;2022-10-31T14:28:59;19.20;;;17.10;;
37019;SDS011;22932;52.442;16.896;2022-10-31T14:31:32;19.80;;;17.60;;
37019;SDS011;22932;52.442;16.896;2022-10-31T14:34:06;18.70;;;16.80;;
37019;SDS011;22932;52.442;16.896;2022-10-31T14:36:59;19.70;;;17.60;;
37019;SDS011;22932;52.442;16.896;2022-10-31T14:39:41;19.70;;;16.80;;
37019;SDS011;22932;52.442;16.896;2022-10-31T14:42:31;21.30;;;16.00;;
37019;SDS011;22932;52.442;16.896;2022-10-31T14:45:20;20.40;;;16.70;;
37019;SDS011;22932;52.442;16.896;2022-10-31T14:48:15;19.10;;;17.10;;
37019;SDS011;22932;52.442;16.896;2022-10-31T14:51:01;19.30;;;16.90;;
37019;SDS011;22932;52.442;16.896;2022-10-31T14:53:46;20.70;;;18.30;;
37019;SDS011;22932;52.442;16.896;2022-10-31T14:56:19;24.00;;;17.80;;
37019;SDS011;22932;52.442;16.896;2022-10-31T14:58:52;20.70;;;17.60;;
37019;SDS011;22932;52.442;16.896;2022-10-31T15:01:24;21.70;;;17.80;;
37019;SDS011;22932;52.442;16.896;2022-10-31T15:03:57;21.10;;;17.50;;
37019;SDS011;22932;52.442;16.896;2022-10-31T15:06:30;18.60;;;16.80;;
37019;SDS011;22932;52.442;16.896;2022-10-31T15:09:21;22.50;;;17.60;;
37019;SDS011;22932;52.442;16.896;2022-10-31T15:11:53;20.30;;;18.20;;
37019;SDS011;22932;52.442;16.896;2022-10-31T15:14:24;30.00;;;24.40;;
37019;SDS011;22932;52.442;16.896;2022-10-31T15:16:54;25.30;;;22.60;;
37019;SDS011;22932;52.442;16.896;2022-10-31T15:19:26;23.50;;;20.10;;
37019;SDS011;22932;52.442;16.896;2022-10-31T15:21:59;26.40;;;21.70;;
37019;SDS011;22932;52.442;16.896;2022-10-31T15:24:30;24.40;;;21.60;;
37019;SDS011;22932;52.442;16.896;2022-10-31T15:27:04;24.20;;;21.70;;
37019;SDS011;22932;52.442;16.896;2022-10-31T15:29:46;24.40;;;21.80;;
37019;SDS011;22932;52.442;16.896;2022-10-31T15:32:19;26.00;;;22.90;;
37019;SDS011;22932;52.442;16.896;2022-10-31T15:34:50;30.50;;;23.30;;
37019;SDS011;22932;52.442;16.896;2022-10-31T15:37:21;27.90;;;24.50;;
37019;SDS011;22932;52.442;16.896;2022-10-31T15:39:52;27.30;;;24.30;;
37019;SDS011;22932;52.442;16.896;2022-10-31T15:42:22;30.70;;;26.40;;
37019;SDS011;22932;52.442;16.896;2022-10-31T15:44:57;30.80;;;27.50;;
37019;SDS011;22932;52.442;16.896;2022-10-31T15:47:30;31.10;;;27.10;;
37019;SDS011;22932;52.442;16.896;2022-10-31T15:52:30;29.60;;;25.80;;
37019;SDS011;22932;52.442;16.896;2022-10-31T15:55:04;33.80;;;29.20;;
37019;SDS011;22932;52.442;16.896;2022-10-31T15:57:44;32.40;;;29.00;;
37019;SDS011;22932;52.442;16.896;2022-10-31T16:00:23;32.40;;;29.20;;
37019;SDS011;22932;52.442;16.896;2022-10-31T16:03:06;30.90;;;27.60;;
37019;SDS011;22932;52.442;16.896;2022-10-31T16:05:47;34.70;;;30.90;;
37019;SDS011;22932;52.442;16.896;2022-10-31T16:08:32;33.20;;;29.70;;
37019;SDS011;22932;52.442;16.896;2022-10-31T16:11:15;32.10;;;28.60;;
37019;SDS011;22932;52.442;16.896;2022-10-31T16:13:54;35.00;;;31.50;;
37019;SDS011;22932;52.442;16.896;2022-10-31T16:16:26;36.30;;;32.50;;
37019;SDS011;22932;52.442;16.896;2022-10-31T16:18:58;36.90;;;33.10;;
37019;SDS011;22932;52.442;16.896;2022-10-31T16:21:30;37.60;;;33.50;;
37019;SDS011;22932;52.442;16.896;2022-10-31T16:24:02;36.20;;;32.40;;
37019;SDS011;22932;52.442;16.896;2022-10-31T16:26:41;38.00;;;34.00;;
37019;SDS011;22932;52.442;16.896;2022-10-31T16:29:23;39.40;;;34.00;;
37019;SDS011;22932;52.442;16.896;2022-10-31T16:31:55;39.40;;;34.50;;
37019;SDS011;22932;52.442;16.896;2022-10-31T16:34:24;40.40;;;35.80;;
37019;SDS011;22932;52.442;16.896;2022-10-31T16:36:54;38.50;;;34.40;;
37019;SDS011;22932;52.442;16.896;2022-10-31T16:39:23;39.80;;;34.10;;
37019;SDS011;22932;52.442;16.896;2022-10-31T16:41:54;40.80;;;36.00;;
37019;SDS011;22932;52.442;16.896;2022-10-31T16:44:24;41.30;;;36.80;;
37019;SDS011;22932;52.442;16.896;2022-10-31T16:47:06;40.50;;;35.90;;
37019;SDS011;22932;52.442;16.896;2022-10-31T16:49:39;39.50;;;35.30;;
37019;SDS011;22932;52.442;16.896;2022-10-31T16:52:09;40.20;;;35.90;;
37019;SDS011;22932;52.442;16.896;2022-10-31T16:54:39;44.60;;;36.60;;
37019;SDS011;22932;52.442;16.896;2022-10-31T16:57:11;39.60;;;35.20;;
37019;SDS011;22932;52.442;16.896;2022-10-31T16:59:43;38.80;;;34.80;;
37019;SDS011;22932;52.442;16.896;2022-10-31T17:02:15;42.90;;;37.50;;
37019;SDS011;22932;52.442;16.896;2022-10-31T17:04:45;39.80;;;35.60;;
37019;SDS011;22932;52.442;16.896;2022-10-31T17:07:15;40.30;;;36.00;;
37019;SDS011;22932;52.442;16.896;2022-10-31T17:09:44;48.20;;;39.40;;
37019;SDS011;22932;52.442;16.896;2022-10-31T17:12:14;48.00;;;40.30;;
37019;SDS011;22932;52.442;16.896;2022-10-31T17:14:48;50.50;;;41.50;;
37019;SDS011;22932;52.442;16.896;2022-10-31T17:17:19;50.90;;;40.00;;
37019;SDS011;22932;52.442;16.896;2022-10-31T17:19:48;43.40;;;38.70;;
37019;SDS011;22932;52.442;16.896;2022-10-31T17:22:17;46.30;;;40.30;;
37019;SDS011;22932;52.442;16.896;2022-10-31T17:24:47;48.30;;;39.20;;
37019;SDS011;22932;52.442;16.896;2022-10-31T17:27:16;48.40;;;39.80;;
37019;SDS011;22932;52.442;16.896;2022-10-31T17:29:46;44.80;;;40.00;;
37019;SDS011;22932;52.442;16.896;2022-10-31T17:32:15;48.50;;;40.20;;
37019;SDS011;22932;52.442;16.896;2022-10-31T17:34:45;45.80;;;40.20;;
37019;SDS011;22932;52.442;16.896;2022-10-31T17:37:14;44.20;;;39.30;;
37019;SDS011;22932;52.442;16.896;2022-10-31T17:39:43;46.00;;;40.30;;
37019;SDS011;22932;52.442;16.896;2022-10-31T17:42:13;49.90;;;40.00;;
37019;SDS011;22932;52.442;16.896;2022-10-31T17:44:42;43.90;;;39.00;;
37019;SDS011;22932;52.442;16.896;2022-10-31T17:47:11;42.30;;;37.40;;
37019;SDS011;22932;52.442;16.896;2022-10-31T17:49:41;47.00;;;38.90;;
37019;SDS011;22932;52.442;16.896;2022-10-31T17:52:10;46.90;;;41.10;;
37019;SDS011;22932;52.442;16.896;2022-10-31T17:54:39;42.80;;;37.90;;
37019;SDS011;22932;52.442;16.896;2022-10-31T17:57:08;43.00;;;37.90;;
37019;SDS011;22932;52.442;16.896;2022-10-31T17:59:38;44.60;;;38.80;;
37019;SDS011;22932;52.442;16.896;2022-10-31T18:02:07;43.10;;;38.20;;
37019;SDS011;22932;52.442;16.896;2022-10-31T18:04:37;44.70;;;36.20;;
37019;SDS011;22932;52.442;16.896;2022-10-31T18:07:07;45.20;;;39.70;;
37019;SDS011;22932;52.442;16.896;2022-10-31T18:09:36;43.20;;;37.80;;
37019;SDS011;22932;52.442;16.896;2022-10-31T18:12:05;47.50;;;39.40;;
37019;SDS011;22932;52.442;16.896;2022-10-31T18:14:34;45.00;;;37.70;;
37019;SDS011;22932;52.442;16.896;2022-10-31T18:17:04;39.80;;;35.70;;
37019;SDS011;22932;52.442;16.896;2022-10-31T18:19:33;39.90;;;35.70;;
37019;SDS011;22932;52.442;16.896;2022-10-31T18:22:03;43.90;;;37.90;;
37019;SDS011;22932;52.442;16.896;2022-10-31T18:24:32;44.70;;;37.40;;
37019;SDS011;22932;52.442;16.896;2022-10-31T18:27:01;40.20;;;36.00;;
37019;SDS011;22932;52.442;16.896;2022-10-31T18:29:31;41.60;;;37.40;;
37019;SDS011;22932;52.442;16.896;2022-10-31T18:32:01;61.20;;;37.40;;
37019;SDS011;22932;52.442;16.896;2022-10-31T18:34:32;71.90;;;36.60;;
37019;SDS011;22932;52.442;16.896;2022-10-31T18:37:02;61.80;;;36.00;;
37019;SDS011;22932;52.442;16.896;2022-10-31T18:39:31;60.90;;;36.00;;
37019;SDS011;22932;52.442;16.896;2022-10-31T18:42:00;55.50;;;35.00;;
37019;SDS011;22932;52.442;16.896;2022-10-31T18:44:29;55.50;;;34.30;;
37019;SDS011;22932;52.442;16.896;2022-10-31T18:46:59;57.90;;;33.40;;
37019;SDS011;22932;52.442;16.896;2022-10-31T18:49:29;61.50;;;34.20;;
37019;SDS011;22932;52.442;16.896;2022-10-31T18:51:59;38.30;;;33.20;;
37019;SDS011;22932;52.442;16.896;2022-10-31T18:54:28;72.40;;;32.30;;
37019;SDS011;22932;52.442;16.896;2022-10-31T18:56:57;41.30;;;33.30;;
37019;SDS011;22932;52.442;16.896;2022-10-31T18:59:26;35.90;;;31.80;;
37019;SDS011;22932;52.442;16.896;2022-10-31T19:01:55;35.50;;;31.70;;
37019;SDS011;22932;52.442;16.896;2022-10-31T19:04:25;40.00;;;31.50;;
37019;SDS011;22932;52.442;16.896;2022-10-31T19:06:54;57.70;;;31.90;;
37019;SDS011;22932;52.442;16.896;2022-10-31T19:09:23;41.00;;;30.90;;
37019;SDS011;22932;52.442;16.896;2022-10-31T19:11:54;46.40;;;30.20;;
37019;SDS011;22932;52.442;16.896;2022-10-31T19:14:24;63.80;;;31.50;;
37019;SDS011;22932;52.442;16.896;2022-10-31T19:16:53;37.80;;;30.30;;
37019;SDS011;22932;52.442;16.896;2022-10-31T19:19:22;37.40;;;30.00;;
